Terminal Aerodrome Forecast
Issued by NWS

Home | Current Version | Previous Version | Text Only | Print | Product List | Glossary On
Versions: 1 2 3 4 5 6 7 8 9 10 11 12 13 14 15 16 17 18 19 20 21 22 23 24 25 26 27 28
000
FTUS41 KBTV 042320
TAFPBG
TAF
KPBG 042320Z 0500/0524 31004KT P6SM OVC035
     FM050500 00000KT P6SM SCT120
     FM050800 15005KT P6SM VCSH BKN110
     FM051100 15006KT 4SM -SN BR SCT025 OVC035
     FM051200 15007KT 2SM -SN BR OVC020
     FM051700 16007KT 5SM -SN BR OVC020
     FM052000 18005KT P6SM OVC015=

USA.gov is the U.S. government's official web portal to all federal, state and local government web resources and services.